createdAt,value
2022-07-29T00:01:42.291Z,71.33
2022-07-29T00:04:09.801Z,71.35
2022-07-29T00:06:37.728Z,71.16
2022-07-29T00:09:05.578Z,70.93
2022-07-29T00:11:32.568Z,70.86
2022-07-29T00:13:59.806Z,70.52
2022-07-29T00:16:28.892Z,70.34
2022-07-29T00:18:56.289Z,69.97
2022-07-29T00:21:23.283Z,70.09
2022-07-29T00:23:51.083Z,70.08
2022-07-29T00:26:18.257Z,70.01
2022-07-29T00:28:46.066Z,69.66
2022-07-29T00:31:13.856Z,69.77
2022-07-29T00:33:41.161Z,69.61
2022-07-29T00:36:08.179Z,69.58
2022-07-29T00:38:36.298Z,70.04
2022-07-29T00:41:03.267Z,69.76
2022-07-29T00:43:31.586Z,69.84
2022-07-29T00:45:58.777Z,69.74
2022-07-29T00:48:26.021Z,69.62
2022-07-29T00:50:53.266Z,69.52
2022-07-29T00:53:21.655Z,69.89
2022-07-29T00:55:49.067Z,69.56
2022-07-29T00:58:16.518Z,69.50
2022-07-29T01:00:44.945Z,69.98
2022-07-29T01:03:14.418Z,70.15
2022-07-29T01:05:50.260Z,69.93
2022-07-29T01:08:18.946Z,69.91
2022-07-29T01:10:47.910Z,70.73
2022-07-29T01:13:16.812Z,70.57
2022-07-29T01:15:53.740Z,70.93
2022-07-29T01:18:45.626Z,70.72
2022-07-29T01:21:34.934Z,70.81
2022-07-29T01:24:23.390Z,70.78
2022-07-29T01:27:18.722Z,70.90
2022-07-29T01:29:59.901Z,71.15
2022-07-29T01:32:36.850Z,70.80
2022-07-29T01:35:26.641Z,70.87
2022-07-29T01:37:57.357Z,70.90
2022-07-29T01:40:57.417Z,71.10
2022-07-29T01:44:02.556Z,71.34
2022-07-29T01:46:36.964Z,71.35
2022-07-29T01:49:12.415Z,71.42
2022-07-29T01:51:49.659Z,71.30
2022-07-29T01:54:22.470Z,71.08
2022-07-29T01:56:52.667Z,71.32
2022-07-29T01:59:21.624Z,71.65
2022-07-29T02:01:51.374Z,71.34
2022-07-29T02:04:26.662Z,71.17
2022-07-29T02:07:02.839Z,71.68
2022-07-29T02:09:33.011Z,72.57
2022-07-29T02:12:02.463Z,72.42
2022-07-29T02:14:34.757Z,72.62
2022-07-29T02:17:03.170Z,72.28
2022-07-29T02:19:33.276Z,72.23
2022-07-29T02:22:02.539Z,72.14
2022-07-29T02:24:32.749Z,72.38
2022-07-29T02:27:01.995Z,71.96
2022-07-29T02:29:32.162Z,72.11
2022-07-29T02:32:03.731Z,72.86
2022-07-29T02:34:32.078Z,72.96
2022-07-29T02:37:00.370Z,73.30
2022-07-29T02:39:30.636Z,73.46
2022-07-29T02:42:04.173Z,73.84
2022-07-29T02:44:34.935Z,73.81
2022-07-29T02:47:16.746Z,73.69
2022-07-29T02:49:56.987Z,73.74
2022-07-29T02:52:27.714Z,73.75
2022-07-29T02:55:01.190Z,73.92
2022-07-29T02:57:55.034Z,73.73
2022-07-29T03:00:29.706Z,74.15
2022-07-29T03:03:00.577Z,74.24
2022-07-29T03:05:28.845Z,74.45
2022-07-29T03:08:05.862Z,74.37
2022-07-29T03:10:34.281Z,74.27
2022-07-29T03:13:01.952Z,74.25
2022-07-29T03:15:30.114Z,74.31
2022-07-29T03:17:57.764Z,74.17
2022-07-29T03:20:25.585Z,74.22
2022-07-29T03:22:53.038Z,74.07
2022-07-29T03:25:21.534Z,73.98
2022-07-29T03:27:49.486Z,74.11
2022-07-29T03:30:18.348Z,74.04
2022-07-29T03:32:52.032Z,74.28
2022-07-29T03:35:22.474Z,74.10
2022-07-29T03:37:50.704Z,74.31
2022-07-29T03:40:47.654Z,74.35
2022-07-29T03:43:19.384Z,74.13
2022-07-29T03:45:50.926Z,74.12
2022-07-29T03:48:22.701Z,73.85
2022-07-29T03:50:51.788Z,73.84
2022-07-29T03:53:19.321Z,73.83
2022-07-29T03:55:49.994Z,73.45
2022-07-29T03:58:19.338Z,73.55
2022-07-29T04:00:47.344Z,73.39
2022-07-29T04:03:15.957Z,73.49
2022-07-29T04:05:43.290Z,73.45
2022-07-29T04:08:10.732Z,73.21
2022-07-29T04:10:39.626Z,73.19
2022-07-29T04:13:06.973Z,73.26
2022-07-29T04:15:34.772Z,73.21
2022-07-29T04:18:03.038Z,73.18
2022-07-29T04:20:30.099Z,72.86
2022-07-29T04:22:57.840Z,73.17
2022-07-29T04:25:25.295Z,72.90
2022-07-29T04:28:01.704Z,72.79
2022-07-29T04:30:31.662Z,72.68
2022-07-29T04:32:58.824Z,72.30
2022-07-29T04:35:26.317Z,72.15
2022-07-29T04:37:54.071Z,71.73
2022-07-29T04:40:21.583Z,71.21
2022-07-29T04:42:49.452Z,70.55
2022-07-29T04:45:22.311Z,70.77
2022-07-29T04:47:50.810Z,70.18
2022-07-29T04:50:18.251Z,69.68
2022-07-29T04:52:45.611Z,69.60
2022-07-29T04:55:12.969Z,69.49
2022-07-29T04:57:41.117Z,69.35
2022-07-29T05:00:09.301Z,69.55
2022-07-29T05:02:37.435Z,69.37
2022-07-29T05:05:05.503Z,69.60
2022-07-29T05:07:33.696Z,69.71
2022-07-29T05:10:00.671Z,69.40
2022-07-29T05:12:29.047Z,69.51
2022-07-29T05:14:56.268Z,69.52
2022-07-29T05:17:23.732Z,69.78
2022-07-29T05:19:53.008Z,69.63
2022-07-29T05:22:21.248Z,69.29
2022-07-29T05:24:48.242Z,68.88
2022-07-29T05:27:16.470Z,68.63
2022-07-29T05:29:45.752Z,68.28
2022-07-29T05:32:18.682Z,67.80
2022-07-29T05:34:50.313Z,67.99
2022-07-29T05:37:23.175Z,67.62
2022-07-29T05:39:56.381Z,67.47
2022-07-29T05:42:25.969Z,67.43
2022-07-29T05:44:55.103Z,67.30
2022-07-29T05:47:23.022Z,67.11
2022-07-29T05:49:50.343Z,67.14
2022-07-29T05:52:18.299Z,66.94
2022-07-29T05:54:45.820Z,66.86
2022-07-29T05:57:22.079Z,66.87
2022-07-29T05:59:50.794Z,66.68
2022-07-29T06:02:18.387Z,66.52
2022-07-29T06:04:46.136Z,66.86
2022-07-29T06:07:13.608Z,66.47
2022-07-29T06:09:40.905Z,66.05
2022-07-29T06:12:07.955Z,65.88
2022-07-29T06:14:37.091Z,65.40
2022-07-29T06:17:04.106Z,64.99
2022-07-29T06:19:31.538Z,64.42
2022-07-29T06:21:58.911Z,63.55
2022-07-29T06:24:26.125Z,63.16
2022-07-29T06:26:53.089Z,62.74
2022-07-29T06:29:20.944Z,62.37
2022-07-29T06:31:48.076Z,62.05
2022-07-29T06:34:15.663Z,61.60
2022-07-29T06:36:43.263Z,61.26
2022-07-29T06:39:11.745Z,61.01
2022-07-29T06:41:39.381Z,60.73
2022-07-29T06:44:10.763Z,60.20
2022-07-29T06:46:38.064Z,59.69
2022-07-29T06:49:05.962Z,59.41
2022-07-29T06:51:33.598Z,59.47
2022-07-29T06:54:03.370Z,59.11
2022-07-29T06:56:39.352Z,58.54
2022-07-29T06:59:11.957Z,58.55
2022-07-29T07:01:44.051Z,58.34
2022-07-29T07:04:12.574Z,57.74
2022-07-29T07:06:39.688Z,57.72
2022-07-29T07:09:07.505Z,57.29
2022-07-29T07:11:35.753Z,57.46
2022-07-29T07:14:04.238Z,57.32
2022-07-29T07:16:32.660Z,56.55
2022-07-29T07:19:00.700Z,56.57
2022-07-29T07:21:30.228Z,56.01
2022-07-29T07:23:58.531Z,55.99
2022-07-29T07:26:26.838Z,55.88
2022-07-29T07:28:54.582Z,55.67
2022-07-29T07:31:21.706Z,55.03
2022-07-29T07:33:49.615Z,54.98
2022-07-29T07:36:16.805Z,54.50
2022-07-29T07:38:44.184Z,54.16
2022-07-29T07:41:11.039Z,53.68
2022-07-29T07:43:38.693Z,53.31
2022-07-29T07:46:05.969Z,53.45
2022-07-29T07:48:35.850Z,53.33
2022-07-29T07:51:03.488Z,52.96
2022-07-29T07:53:31.542Z,52.99
2022-07-29T07:56:10.534Z,52.58
2022-07-29T07:58:40.078Z,51.99
2022-07-29T08:01:07.463Z,52.08
2022-07-29T08:03:37.507Z,52.09
2022-07-29T08:06:04.998Z,51.93
2022-07-29T08:08:32.371Z,51.62
2022-07-29T08:11:04.311Z,51.30
2022-07-29T08:13:35.533Z,50.94
2022-07-29T08:16:03.034Z,50.95
2022-07-29T08:18:32.030Z,51.04
2022-07-29T08:20:59.616Z,50.86
2022-07-29T08:23:45.540Z,50.44
2022-07-29T08:26:16.498Z,50.61
2022-07-29T08:28:50.704Z,50.59
2022-07-29T08:31:18.371Z,50.47
2022-07-29T08:33:45.352Z,50.38
2022-07-29T08:36:14.349Z,50.29
2022-07-29T08:38:41.293Z,49.74
2022-07-29T08:41:08.469Z,49.49
2022-07-29T08:43:38.650Z,49.34
2022-07-29T08:46:06.349Z,48.44
2022-07-29T08:48:34.204Z,48.01
2022-07-29T08:51:04.414Z,47.68
2022-07-29T08:53:31.851Z,46.82
2022-07-29T08:56:01.336Z,46.75
2022-07-29T08:58:32.373Z,46.56
2022-07-29T09:01:07.543Z,46.03
2022-07-29T09:03:40.103Z,46.38
2022-07-29T09:06:07.874Z,45.96
2022-07-29T09:08:36.117Z,45.70
2022-07-29T09:11:05.330Z,44.59
2022-07-29T09:13:35.511Z,44.55
2022-07-29T09:16:09.065Z,44.59
2022-07-29T09:18:43.824Z,44.62
2022-07-29T09:21:33.147Z,44.33
2022-07-29T09:24:12.366Z,44.18
2022-07-29T09:26:46.935Z,44.07
2022-07-29T09:29:16.243Z,43.96
2022-07-29T09:31:46.137Z,43.53
2022-07-29T09:34:15.588Z,43.19
2022-07-29T09:36:45.192Z,43.34
2022-07-29T09:39:13.897Z,43.50
2022-07-29T09:41:56.140Z,42.97
2022-07-29T09:44:24.453Z,42.62
2022-07-29T09:47:09.470Z,42.19
2022-07-29T09:49:53.718Z,41.40
2022-07-29T09:52:21.473Z,41.79
2022-07-29T09:54:48.915Z,42.04
2022-07-29T09:57:31.360Z,40.80
2022-07-29T10:00:19.525Z,40.90
2022-07-29T10:02:48.705Z,41.23
2022-07-29T10:05:24.890Z,40.90
2022-07-29T10:07:57.437Z,41.15
2022-07-29T10:10:29.132Z,40.86
2022-07-29T10:13:01.778Z,40.86
2022-07-29T10:15:42.076Z,40.62
2022-07-29T10:18:10.003Z,40.77
2022-07-29T10:20:37.649Z,40.37
2022-07-29T10:23:06.027Z,39.69
2022-07-29T10:25:33.232Z,40.01
2022-07-29T10:28:00.603Z,40.31
2022-07-29T10:30:28.602Z,40.16
2022-07-29T10:33:33.563Z,38.82
2022-07-29T10:36:12.316Z,40.05
2022-07-29T10:38:46.005Z,39.55
2022-07-29T10:41:32.126Z,39.25
2022-07-29T10:44:19.385Z,37.98
2022-07-29T10:46:52.584Z,38.82
2022-07-29T10:49:25.792Z,38.50
2022-07-29T10:51:58.229Z,38.38
2022-07-29T10:54:39.655Z,38.02
2022-07-29T10:57:54.448Z,37.68
2022-07-29T11:00:18.682Z,37.85
2022-07-29T11:02:50.255Z,37.49
2022-07-29T11:05:20.477Z,37.34
2022-07-29T11:08:16.204Z,35.86
2022-07-29T11:10:49.948Z,36.90
2022-07-29T11:13:46.471Z,35.71
2022-07-29T11:16:16.183Z,35.83
2022-07-29T11:19:13.381Z,34.52
2022-07-29T11:21:54.070Z,33.90
2022-07-29T11:24:32.460Z,34.47
2022-07-29T11:27:11.009Z,34.53
2022-07-29T11:30:01.247Z,33.79
2022-07-29T11:32:39.086Z,34.34
2022-07-29T11:35:38.452Z,33.59
2022-07-29T11:38:28.636Z,32.11
2022-07-29T11:41:22.298Z,31.27
2022-07-29T11:43:56.064Z,32.27
2022-07-29T11:46:48.376Z,31.35
2022-07-29T11:49:32.365Z,30.27
2022-07-29T11:52:04.944Z,30.35
2022-07-29T11:54:57.537Z,29.90
2022-07-29T11:57:36.057Z,28.85
2022-07-29T12:00:12.201Z,28.21
2022-07-29T12:02:48.126Z,28.07
2022-07-29T12:05:22.163Z,27.12
2022-07-29T12:08:17.437Z,27.19
2022-07-29T12:10:44.638Z,26.36
2022-07-29T12:13:12.548Z,26.28
2022-07-29T12:15:45.860Z,26.03
2022-07-29T12:18:19.125Z,25.70
2022-07-29T12:20:49.101Z,25.90
2022-07-29T12:23:17.457Z,26.07
2022-07-29T12:25:50.021Z,25.80
2022-07-29T12:28:26.982Z,25.11
2022-07-29T12:30:55.822Z,25.50
2022-07-29T12:33:24.671Z,25.57
2022-07-29T12:36:06.079Z,25.20
2022-07-29T12:38:35.918Z,25.10
2022-07-29T12:41:06.450Z,24.47
2022-07-29T12:43:33.835Z,24.67
2022-07-29T12:46:15.126Z,23.11
2022-07-29T12:48:44.944Z,23.69
2022-07-29T12:54:51.558Z,22.18
2022-07-29T12:57:20.507Z,21.65
2022-07-29T13:00:05.141Z,21.77
2022-07-29T13:02:33.043Z,22.17
2022-07-29T13:05:02.040Z,22.03
2022-07-29T13:07:54.418Z,21.37
2022-07-29T13:10:23.956Z,21.45
2022-07-29T13:13:15.836Z,19.79
2022-07-29T13:15:48.131Z,19.94
2022-07-29T13:18:33.100Z,19.27
2022-07-29T13:21:15.345Z,19.25
2022-07-29T13:23:43.744Z,19.35
2022-07-29T13:26:12.871Z,18.74
2022-07-29T13:28:41.035Z,18.73
2022-07-29T13:31:11.994Z,18.60
2022-07-29T13:33:39.041Z,18.55
2022-07-29T13:36:06.624Z,18.09
2022-07-29T13:38:34.192Z,17.98
2022-07-29T13:41:03.196Z,18.04
2022-07-29T13:43:30.350Z,17.36
2022-07-29T13:45:58.976Z,17.49
2022-07-29T13:48:25.993Z,17.03
2022-07-29T13:50:53.683Z,16.84
2022-07-29T13:53:26.995Z,16.63
2022-07-29T13:55:54.986Z,16.37
2022-07-29T13:58:22.775Z,16.64
2022-07-29T14:00:50.125Z,16.55
2022-07-29T14:03:17.145Z,16.35
2022-07-29T14:05:44.656Z,16.35
2022-07-29T14:08:11.739Z,15.88
2022-07-29T14:10:39.161Z,15.82
2022-07-29T14:13:06.399Z,15.55
2022-07-29T14:15:52.321Z,15.75
2022-07-29T14:18:19.729Z,15.47
2022-07-29T14:20:47.397Z,15.81
2022-07-29T14:23:14.506Z,15.43
2022-07-29T14:25:44.492Z,15.54
2022-07-29T14:28:11.676Z,15.20
2022-07-29T14:30:43.575Z,15.00
2022-07-29T14:33:11.747Z,14.60
2022-07-29T14:35:39.241Z,15.40
2022-07-29T14:38:06.343Z,15.06
2022-07-29T14:40:34.421Z,14.84
2022-07-29T14:43:01.455Z,14.90
2022-07-29T14:45:29.357Z,14.31
2022-07-29T14:47:58.302Z,13.92
2022-07-29T14:50:31.413Z,14.08
2022-07-29T14:53:01.513Z,14.12
2022-07-29T14:55:28.561Z,14.34
2022-07-29T14:58:07.741Z,14.83
2022-07-29T15:00:38.955Z,14.90
2022-07-29T15:03:06.608Z,14.81
2022-07-29T15:05:40.695Z,15.36
2022-07-29T15:08:09.242Z,14.29
2022-07-29T15:10:37.154Z,15.02
2022-07-29T15:13:04.154Z,14.29
2022-07-29T15:15:31.419Z,14.23
2022-07-29T15:17:58.617Z,13.75
2022-07-29T15:20:28.130Z,13.97
2022-07-29T15:22:59.223Z,14.04
2022-07-29T15:25:28.564Z,14.49
2022-07-29T15:28:00.984Z,14.52
2022-07-29T15:30:32.748Z,15.21
2022-07-29T15:33:02.533Z,14.94
2022-07-29T15:35:29.819Z,14.50
2022-07-29T15:37:57.218Z,14.39
2022-07-29T15:40:24.438Z,13.62
2022-07-29T15:42:52.344Z,13.41
2022-07-29T15:45:19.353Z,14.06
2022-07-29T15:47:47.533Z,13.95
2022-07-29T15:50:17.609Z,13.60
2022-07-29T15:52:44.972Z,13.85
2022-07-29T15:55:12.976Z,13.93
2022-07-29T15:57:40.988Z,14.11
2022-07-29T16:00:09.533Z,13.06
2022-07-29T16:02:36.810Z,12.78
2022-07-29T16:05:04.130Z,12.62
2022-07-29T16:07:38.988Z,12.69
2022-07-29T16:10:08.007Z,12.97
2022-07-29T16:12:36.141Z,13.50
2022-07-29T16:15:07.719Z,13.38
2022-07-29T16:17:38.124Z,13.33
2022-07-29T16:20:07.284Z,13.44
2022-07-29T16:22:34.611Z,12.73
2022-07-29T16:25:01.569Z,12.72
2022-07-29T16:27:35.641Z,12.88
2022-07-29T16:30:08.587Z,13.31
2022-07-29T16:32:36.275Z,13.10
2022-07-29T16:35:05.441Z,13.53
2022-07-29T16:37:37.510Z,13.43
2022-07-29T16:40:06.409Z,13.36
2022-07-29T16:42:46.674Z,13.39
2022-07-29T16:45:17.431Z,13.77
2022-07-29T16:47:47.136Z,14.05
2022-07-29T16:50:14.480Z,13.89
2022-07-29T16:52:42.212Z,13.68
2022-07-29T16:55:09.325Z,14.09
2022-07-29T16:57:36.862Z,15.87
2022-07-29T17:00:05.603Z,16.98
2022-07-29T17:02:33.052Z,17.58
2022-07-29T17:04:59.995Z,17.92
2022-07-29T17:07:31.816Z,18.43
2022-07-29T17:10:03.607Z,18.89
2022-07-29T17:12:33.241Z,19.61
2022-07-29T17:15:00.724Z,19.71
2022-07-29T17:17:38.768Z,20.03
2022-07-29T17:20:17.614Z,20.84
2022-07-29T17:22:44.791Z,21.13
2022-07-29T17:25:20.664Z,21.38
2022-07-29T17:27:51.242Z,21.71
2022-07-29T17:30:19.014Z,21.98
2022-07-29T17:32:46.313Z,22.71
2022-07-29T17:35:32.292Z,23.88
2022-07-29T17:37:59.553Z,25.09
2022-07-29T17:40:26.686Z,25.83
2022-07-29T17:42:54.658Z,27.05
2022-07-29T17:45:21.873Z,27.81
2022-07-29T17:47:49.630Z,29.05
2022-07-29T17:50:16.829Z,30.41
2022-07-29T17:52:44.160Z,30.83
2022-07-29T17:55:13.362Z,31.35
2022-07-29T17:57:40.846Z,33.10
2022-07-29T18:00:09.302Z,33.74
2022-07-29T18:02:37.783Z,34.49
2022-07-29T18:05:05.714Z,34.88
2022-07-29T18:07:33.196Z,35.31
2022-07-29T18:10:00.844Z,36.07
2022-07-29T18:12:28.966Z,36.47
2022-07-29T18:14:55.953Z,37.08
2022-07-29T18:17:23.255Z,37.97
2022-07-29T18:20:11.460Z,38.43
2022-07-29T18:22:38.491Z,38.10
2022-07-29T18:25:06.804Z,38.95
2022-07-29T18:27:34.162Z,39.67
2022-07-29T18:30:04.844Z,40.35
2022-07-29T18:32:32.417Z,40.73
2022-07-29T18:35:03.058Z,41.46
2022-07-29T18:38:00.276Z,41.82
2022-07-29T18:40:21.526Z,41.87
2022-07-29T18:42:48.478Z,42.22
2022-07-29T18:45:19.062Z,43.25
2022-07-29T18:47:49.439Z,43.74
2022-07-29T18:50:16.938Z,43.99
2022-07-29T18:52:46.442Z,44.32
2022-07-29T18:55:14.894Z,44.67
2022-07-29T18:57:55.988Z,45.55
2022-07-29T19:00:25.306Z,45.75
2022-07-29T19:02:53.197Z,46.25
2022-07-29T19:05:21.131Z,46.59
2022-07-29T19:07:48.192Z,46.74
2022-07-29T19:10:16.204Z,46.94
2022-07-29T19:12:43.167Z,47.60
2022-07-29T19:15:11.024Z,48.26
2022-07-29T19:17:39.098Z,48.67
2022-07-29T19:20:07.965Z,48.98
2022-07-29T19:22:35.160Z,49.02
2022-07-29T19:25:02.877Z,49.48
2022-07-29T19:27:29.891Z,50.41
2022-07-29T19:29:59.374Z,50.89
2022-07-29T19:32:27.707Z,51.19
2022-07-29T19:35:13.737Z,51.76
2022-07-29T19:37:41.395Z,51.94
2022-07-29T19:40:10.093Z,52.63
2022-07-29T19:42:37.407Z,52.92
2022-07-29T19:45:05.031Z,53.09
2022-07-29T19:47:32.314Z,53.64
2022-07-29T19:50:00.641Z,53.32
2022-07-29T19:52:30.539Z,53.48
2022-07-29T19:54:57.625Z,53.49
2022-07-29T19:57:25.623Z,53.97
2022-07-29T19:59:54.192Z,53.83
2022-07-29T20:02:21.514Z,53.88
2022-07-29T20:04:51.469Z,54.49
2022-07-29T20:07:19.607Z,53.85
2022-07-29T20:09:47.071Z,53.55
2022-07-29T20:12:14.328Z,53.78
2022-07-29T20:14:41.945Z,53.76
2022-07-29T20:17:09.262Z,54.56
2022-07-29T20:19:36.277Z,54.35
2022-07-29T20:22:04.850Z,54.64
2022-07-29T20:24:31.952Z,55.06
2022-07-29T20:26:59.637Z,55.28
2022-07-29T20:29:27.642Z,55.95
2022-07-29T20:31:56.573Z,56.29
2022-07-29T20:34:23.983Z,56.50
2022-07-29T20:36:51.727Z,56.54
2022-07-29T20:39:21.089Z,56.54
2022-07-29T20:41:49.592Z,56.98
2022-07-29T20:44:19.947Z,57.12
2022-07-29T20:46:48.974Z,57.08
2022-07-29T20:49:16.243Z,57.00
2022-07-29T20:51:44.273Z,57.38
2022-07-29T20:54:11.975Z,56.82
2022-07-29T20:56:39.577Z,56.96
2022-07-29T20:59:06.865Z,56.75
2022-07-29T21:01:34.435Z,56.81
2022-07-29T21:04:02.929Z,57.01
2022-07-29T21:06:31.037Z,56.58
2022-07-29T21:08:59.773Z,56.58
2022-07-29T21:11:44.068Z,56.52
2022-07-29T21:14:29.930Z,56.58
2022-07-29T21:16:57.455Z,55.79
2022-07-29T21:19:24.600Z,55.33
2022-07-29T21:21:52.365Z,54.99
2022-07-29T21:24:19.384Z,55.01
2022-07-29T21:26:54.483Z,55.34
2022-07-29T21:29:27.905Z,55.58
2022-07-29T21:31:54.927Z,55.49
2022-07-29T21:34:24.657Z,55.65
2022-07-29T21:36:51.902Z,55.27
2022-07-29T21:39:20.252Z,54.36
2022-07-29T21:41:47.344Z,54.03
2022-07-29T21:44:15.100Z,53.63
2022-07-29T21:46:42.125Z,53.52
2022-07-29T21:49:09.431Z,53.75
2022-07-29T21:51:36.710Z,54.64
2022-07-29T21:54:04.565Z,54.74
2022-07-29T21:56:31.642Z,54.83
2022-07-29T21:58:59.125Z,54.84
2022-07-29T22:01:26.370Z,55.00
2022-07-29T22:03:54.040Z,55.00
2022-07-29T22:06:21.559Z,55.10
2022-07-29T22:08:48.919Z,54.85
2022-07-29T22:11:16.192Z,55.16
2022-07-29T22:13:43.478Z,54.95
2022-07-29T22:16:15.107Z,55.46
2022-07-29T22:18:45.757Z,55.72
2022-07-29T22:21:14.934Z,55.84
2022-07-29T22:23:41.926Z,55.68
2022-07-29T22:26:09.672Z,55.33
2022-07-29T22:28:36.698Z,55.34
2022-07-29T22:31:05.109Z,55.62
2022-07-29T22:33:32.920Z,56.12
2022-07-29T22:36:00.346Z,56.19
2022-07-29T22:38:27.403Z,56.72
2022-07-29T22:41:00.689Z,56.66
2022-07-29T22:43:29.004Z,57.17
2022-07-29T22:45:56.353Z,57.04
2022-07-29T22:48:23.988Z,57.17
2022-07-29T22:50:51.007Z,57.21
2022-07-29T22:53:18.623Z,57.27
2022-07-29T22:55:45.840Z,57.35
2022-07-29T22:58:13.299Z,57.36
2022-07-29T23:00:41.341Z,58.00
2022-07-29T23:03:08.645Z,58.31
2022-07-29T23:05:35.813Z,58.72
2022-07-29T23:08:03.884Z,58.68
2022-07-29T23:10:31.164Z,59.28
2022-07-29T23:12:58.502Z,59.52
2022-07-29T23:15:26.345Z,59.46
2022-07-29T23:17:54.300Z,59.25
2022-07-29T23:20:23.795Z,59.56
2022-07-29T23:22:51.614Z,59.92
2022-07-29T23:25:19.104Z,59.33
2022-07-29T23:27:46.268Z,59.59
2022-07-29T23:30:15.329Z,59.54
2022-07-29T23:32:42.385Z,59.55
2022-07-29T23:35:10.293Z,59.40
2022-07-29T23:37:38.540Z,59.51
2022-07-29T23:40:08.720Z,59.54
2022-07-29T23:42:40.052Z,59.67
2022-07-29T23:45:07.572Z,59.69
2022-07-29T23:47:34.955Z,59.89
2022-07-29T23:50:02.209Z,59.53
2022-07-29T23:52:29.649Z,58.76
2022-07-29T23:55:37.809Z,59.35
2022-07-29T23:57:45.508Z,59.62
